Sagrada, Missouri
Current Conditions -  °F | °C
As of 12:55 AM on Friday 28 Nov 2014 (Local Time) from KH21 Reporting Station
Clear Clear  
Wind Chill: -5°   Ceiling: Unl
Heat Index: -1°   Visibility: 10mi
Dew Point: -4°   Wind: 8mph
Humidity: 80%   Direction: 130°SE
Pressure: 30.29"   Gusts: NA
Location:  38.1656°N, 93.1481°W
Report Text: KH21 280655Z AUTO 13007KT 10SM CLR M01/M04 A3029 RMK AO2
Loading
Personal Weather Stations






























Interactive Weather Map New forecast layout! Learn more

10-Day Weather Forecast

Advertisements
Track Severe Weather on mobile